Main page
METAR-TAF:

METAR-TAF

Airports :

Chiang Mai International Airport

Chiang Mai, Thailand

latitude: 18-47N, longitude: 098-59E, elevation: 312 m

Current weather observation

The report was made 32 minutes ago, at 20:00 UTC
Calm wind
Temperature 15°C
Humidity 94%
Pressure 1017 hPa
Visibility: 9000 m

METAR: VTCC 152000Z 00000KT 9000 NSC 15/14 Q1017 NOSIG

Time: 03:32 (20:32 UTC)

Forecast

The report was made 3 hours and 32 minutes ago, at 17:00 UTC
Forecast valid from 15 at 18 UTC to 16 at 24 UTC
Wind 5 kt from the South/Southeast
Visibility: 9000 m

TAF: VTCC 151700Z 1518/1624 16005KT 9000 NSC

Weather observations and forecasts of more than 4000 airports (METAR and TAF reports).

The available stations are represented by yellow and red dots on the map.

Hover mouse over dot to see the name of the station.

Then click to see weather observations and forecasts.

To change the map : click on the green buttons with a black cross to zoom in, on the green button with a dash to zoom out, or on the green arrows for adjacent maps.


METAR-TAF: